Time;durP1;ratioP1;P1;durP2;ratioP2;P2;SDS_P1;SDS_P2;PMS_P1;PMS_P2;Temp;Humidity;BMP_temperature;BMP_pressure;BME280_temperature;BME280_humidity;BME280_pressure;Samples;Min_cycle;Max_cycle;Signal;HPM_P1;HPM_P2
2023/03/13 00:02:08;;;;;;;36.45;6.38;;;8.70;99.90;;;;;;6219275;23;20012;-89
2023/03/13 00:04:33;;;;;;;38.90;6.00;;;8.70;99.90;;;;;;6218719;23;20020;-89
2023/03/13 00:06:59;;;;;;;36.67;5.63;;;8.70;99.90;;;;;;6245491;23;20048;-89
2023/03/13 00:09:26;;;;;;;33.72;5.68;;;8.80;99.90;;;;;;6245377;23;20027;-89
2023/03/13 00:11:51;;;;;;;37.17;5.88;;;8.70;99.90;;;;;;6218059;23;20467;-88
2023/03/13 00:14:17;;;;;;;40.35;6.07;;;8.70;99.90;;;;;;6245685;23;20016;-88
2023/03/13 00:16:43;;;;;;;39.75;5.97;;;8.70;99.90;;;;;;6218839;23;20070;-88
2023/03/13 00:19:09;;;;;;;36.97;6.15;;;8.70;99.90;;;;;;6245482;23;20104;-89
2023/03/13 00:21:39;;;;;;;44.03;5.75;;;8.70;99.90;;;;;;6245904;23;20016;-88
2023/03/13 00:24:06;;;;;;;39.08;6.25;;;8.70;99.90;;;;;;6219045;23;20016;-89
2023/03/13 00:26:32;;;;;;;37.28;5.75;;;8.70;99.90;;;;;;6244966;23;20011;-89
2023/03/13 00:28:58;;;;;;;35.00;6.30;;;8.60;99.90;;;;;;6246077;23;20043;-88
2023/03/13 00:31:26;;;;;;;33.97;5.60;;;8.70;99.90;;;;;;6246539;23;20016;-89
2023/03/13 00:33:54;;;;;;;36.40;6.43;;;8.60;99.90;;;;;;6247096;23;20474;-88
2023/03/13 00:36:23;;;;;;;39.55;6.53;;;8.70;99.90;;;;;;6219268;23;20012;-88
2023/03/13 00:38:49;;;;;;;33.75;5.90;;;8.70;99.90;;;;;;6217937;23;20340;-89
2023/03/13 00:41:17;;;;;;;43.88;6.15;;;8.60;99.90;;;;;;6243726;23;20070;-89
2023/03/13 00:43:45;;;;;;;39.60;5.78;;;8.60;99.90;;;;;;6244782;23;20027;-88
2023/03/13 00:46:12;;;;;;;37.35;5.63;;;8.60;99.90;;;;;;6244320;23;20016;-89
2023/03/13 00:48:38;;;;;;;39.85;6.75;;;8.60;99.90;;;;;;6243968;23;20016;-89
2023/03/13 00:51:05;;;;;;;36.70;6.20;;;8.60;99.90;;;;;;6217628;23;20336;-89
2023/03/13 00:53:31;;;;;;;39.15;7.00;;;8.60;99.90;;;;;;6217125;23;20082;-89
2023/03/13 00:56:23;;;;;;;40.55;6.65;;;8.60;99.90;;;;;;6243863;23;20436;-89
2023/03/13 00:58:49;;;;;;;31.05;5.63;;;8.60;99.90;;;;;;6237577;23;20024;-89
2023/03/13 01:01:17;;;;;;;34.22;5.90;;;8.60;99.90;;;;;;6216030;23;20682;-89
2023/03/13 01:03:45;;;;;;;31.45;5.47;;;8.60;99.90;;;;;;6217675;23;20397;-89
2023/03/13 01:06:13;;;;;;;45.70;6.03;;;8.60;99.90;;;;;;6216912;23;20020;-89
2023/03/13 01:08:39;;;;;;;44.25;5.93;;;8.60;99.90;;;;;;6243616;23;20012;-89
2023/03/13 01:11:08;;;;;;;39.72;6.20;;;8.70;99.90;;;;;;6217253;23;20027;-90
2023/03/13 01:13:35;;;;;;;35.65;6.00;;;8.70;99.90;;;;;;6216872;23;20027;-89
2023/03/13 01:16:06;;;;;;;36.78;5.93;;;8.60;99.90;;;;;;6216754;23;20318;-88
2023/03/13 01:18:34;;;;;;;34.58;6.07;;;8.70;99.90;;;;;;6244918;23;20016;-89
2023/03/13 01:21:00;;;;;;;35.83;5.72;;;8.70;99.90;;;;;;6217119;23;20317;-89
2023/03/13 01:23:26;;;;;;;32.67;5.85;;;8.70;99.90;;;;;;6243290;23;20122;-88
2023/03/13 01:25:54;;;;;;;28.75;5.10;;;8.70;99.90;;;;;;6217393;23;20095;-89
2023/03/13 01:28:20;;;;;;;38.47;6.00;;;8.60;99.90;;;;;;6216677;23;20043;-88
2023/03/13 01:30:45;;;;;;;32.42;5.03;;;8.60;99.90;;;;;;6216414;23;20027;-89
2023/03/13 01:33:11;;;;;;;38.88;5.90;;;8.70;99.90;;;;;;6216875;23;20012;-89
2023/03/13 01:35:37;;;;;;;37.90;6.13;;;8.60;99.90;;;;;;6217311;23;20019;-89
2023/03/13 01:38:02;;;;;;;29.75;4.82;;;8.70;99.90;;;;;;6216626;23;20023;-89
2023/03/13 01:40:28;;;;;;;35.88;5.32;;;8.70;99.90;;;;;;6216836;23;20381;-89
2023/03/13 01:42:58;;;;;;;33.30;5.45;;;8.70;99.90;;;;;;6244134;23;20027;-89
2023/03/13 01:45:52;;;;;;;36.45;5.93;;;8.70;99.90;;;;;;6217073;23;20016;-90
2023/03/13 01:48:19;;;;;;;30.77;5.10;;;8.70;99.90;;;;;;6217742;23;20466;-89
2023/03/13 01:50:45;;;;;;;32.38;5.78;;;8.70;99.90;;;;;;6217248;23;20016;-90
2023/03/13 01:53:11;;;;;;;36.33;5.50;;;8.70;99.90;;;;;;6217902;23;20019;-90
2023/03/13 01:55:37;;;;;;;29.42;5.38;;;8.70;99.90;;;;;;6218440;23;20345;-90
2023/03/13 01:58:03;;;;;;;28.30;5.47;;;8.70;99.90;;;;;;6218187;23;20143;-91
2023/03/13 02:00:33;;;;;;;30.50;5.20;;;8.70;99.90;;;;;;6245031;23;20044;-90
2023/03/13 02:03:05;;;;;;;28.67;5.47;;;8.70;99.90;;;;;;6217950;23;20016;-89
2023/03/13 02:05:31;;;;;;;31.15;5.88;;;8.80;99.90;;;;;;6244080;23;20034;-89
2023/03/13 02:08:12;;;;;;;27.35;5.03;;;8.80;99.90;;;;;;6245412;23;20467;-88
2023/03/13 02:10:43;;;;;;;36.55;5.80;;;8.80;99.90;;;;;;6218211;23;20389;-89
2023/03/13 02:13:13;;;;;;;34.90;5.95;;;8.80;99.90;;;;;;6244547;23;20444;-88
2023/03/13 02:15:40;;;;;;;30.50;5.90;;;8.80;99.90;;;;;;6218295;23;20054;-88
2023/03/13 02:18:06;;;;;;;32.38;5.55;;;8.80;99.90;;;;;;6218244;23;20020;-88
2023/03/13 02:20:31;;;;;;;28.75;5.43;;;8.80;99.90;;;;;;6217149;23;20057;-88
2023/03/13 02:23:16;;;;;;;24.98;5.25;;;8.80;99.90;;;;;;6245431;23;20020;-87
2023/03/13 02:25:52;;;;;;;21.08;4.47;;;8.80;99.90;;;;;;6217401;23;20020;-86
2023/03/13 02:28:27;;;;;;;28.35;5.05;;;8.80;99.90;;;;;;6244868;23;20523;-88
2023/03/13 02:30:55;;;;;;;19.20;4.55;;;8.80;99.90;;;;;;6218165;23;20012;-88
2023/03/13 02:33:25;;;;;;;22.10;4.25;;;8.80;99.90;;;;;;6245358;23;20491;-88
2023/03/13 02:35:51;;;;;;;23.13;4.82;;;8.80;99.90;;;;;;6219859;23;20020;-88
2023/03/13 02:38:22;;;;;;;21.20;4.40;;;8.80;99.90;;;;;;6219822;23;20095;-88
2023/03/13 02:40:50;;;;;;;20.38;4.40;;;8.80;99.90;;;;;;6246248;23;20015;-88
2023/03/13 02:43:37;;;;;;;19.35;4.40;;;8.80;99.90;;;;;;6247043;23;20066;-88
2023/03/13 02:46:15;;;;;;;18.27;4.30;;;8.80;99.90;;;;;;6219963;23;20020;-88
2023/03/13 02:48:52;;;;;;;18.25;4.20;;;8.90;99.90;;;;;;6218810;23;20027;-86
2023/03/13 02:51:32;;;;;;;19.77;3.63;;;8.90;99.90;;;;;;6219509;23;20020;-87
2023/03/13 02:54:01;;;;;;;11.85;3.30;;;8.90;99.90;;;;;;6218997;23;20020;-87
2023/03/13 02:56:30;;;;;;;13.35;3.50;;;8.90;99.90;;;;;;6219141;23;20519;-88
2023/03/13 02:58:56;;;;;;;14.25;3.88;;;9.00;99.90;;;;;;6247596;23;20020;-89
2023/03/13 03:01:21;;;;;;;11.50;3.38;;;9.00;99.90;;;;;;6218688;23;20012;-88
2023/03/13 03:03:47;;;;;;;14.52;3.22;;;9.00;99.90;;;;;;6220062;23;20020;-88
2023/03/13 03:06:13;;;;;;;12.73;3.13;;;9.00;99.90;;;;;;6246387;23;20012;-88
2023/03/13 03:08:40;;;;;;;11.18;3.25;;;9.00;99.90;;;;;;6246074;23;20016;-88
2023/03/13 03:11:06;;;;;;;10.63;3.00;;;9.00;99.90;;;;;;6219237;23;20024;-86
2023/03/13 03:13:32;;;;;;;11.27;3.05;;;9.00;99.90;;;;;;6219065;23;20103;-88
2023/03/13 03:15:58;;;;;;;12.18;3.60;;;9.00;99.90;;;;;;6218347;23;20051;-88
2023/03/13 03:18:24;;;;;;;11.10;3.35;;;9.10;99.90;;;;;;6246365;23;20016;-87
2023/03/13 03:20:49;;;;;;;12.23;3.75;;;9.10;99.90;;;;;;6246599;23;20009;-88
2023/03/13 03:23:15;;;;;;;14.75;3.40;;;9.10;99.90;;;;;;6218435;23;20158;-88
2023/03/13 03:25:41;;;;;;;13.55;3.20;;;9.10;99.90;;;;;;6219607;23;20344;-88
2023/03/13 03:28:06;;;;;;;9.07;2.90;;;9.20;99.90;;;;;;6219298;23;20530;-87
2023/03/13 03:30:32;;;;;;;11.27;3.38;;;9.20;99.90;;;;;;6218446;23;20016;-89
2023/03/13 03:32:57;;;;;;;8.73;2.92;;;9.20;99.90;;;;;;6246339;23;20336;-89
2023/03/13 03:35:23;;;;;;;9.50;3.20;;;9.30;99.90;;;;;;6241701;23;20142;-87
2023/03/13 03:37:49;;;;;;;9.88;3.47;;;9.30;99.90;;;;;;6244824;23;20385;-88
2023/03/13 03:40:14;;;;;;;9.57;3.30;;;9.30;99.90;;;;;;6217163;23;20024;-88
2023/03/13 03:42:40;;;;;;;9.77;3.42;;;9.40;99.90;;;;;;6244435;23;20333;-88
2023/03/13 03:45:06;;;;;;;10.82;3.65;;;9.30;99.90;;;;;;6218113;23;20020;-88
2023/03/13 03:47:32;;;;;;;7.97;3.30;;;9.40;99.90;;;;;;6217324;23;20020;-88
2023/03/13 03:49:57;;;;;;;10.27;3.38;;;9.40;99.90;;;;;;6218122;23;20019;-87
2023/03/13 03:52:23;;;;;;;11.40;3.60;;;9.40;99.90;;;;;;6244990;23;20062;-88
2023/03/13 03:54:48;;;;;;;10.30;3.30;;;9.50;99.90;;;;;;6219339;23;20039;-87
2023/03/13 03:57:14;;;;;;;9.45;4.15;;;9.40;99.90;;;;;;6245033;23;20066;-87
2023/03/13 03:59:39;;;;;;;8.07;3.33;;;9.50;99.90;;;;;;6246493;23;20008;-87
2023/03/13 04:02:05;;;;;;;10.50;3.85;;;9.50;99.90;;;;;;6246504;23;20023;-88
2023/03/13 04:04:31;;;;;;;7.95;3.85;;;9.50;99.90;;;;;;6218126;23;20397;-88
2023/03/13 04:06:56;;;;;;;9.20;3.70;;;9.60;99.90;;;;;;6219039;23;20095;-87
2023/03/13 04:09:22;;;;;;;6.28;2.85;;;9.70;99.90;;;;;;6218886;23;20016;-87
2023/03/13 04:11:47;;;;;;;7.32;3.13;;;9.60;99.90;;;;;;6218252;23;20054;-88
2023/03/13 04:14:13;;;;;;;7.05;3.40;;;9.70;99.90;;;;;;6218855;23;20028;-88
2023/03/13 04:16:39;;;;;;;8.15;3.45;;;9.70;99.90;;;;;;6219388;23;20434;-88
2023/03/13 04:19:04;;;;;;;7.75;3.55;;;9.70;99.90;;;;;;6245125;23;20223;-88
2023/03/13 04:21:30;;;;;;;8.13;4.03;;;9.70;99.90;;;;;;6245658;23;20020;-88
2023/03/13 04:23:55;;;;;;;9.80;3.50;;;9.80;99.90;;;;;;6246428;23;20008;-88
2023/03/13 04:26:21;;;;;;;8.13;4.53;;;9.80;99.90;;;;;;6218194;23;20395;-88
2023/03/13 04:28:46;;;;;;;6.53;4.18;;;9.80;99.90;;;;;;6219318;23;20012;-88
2023/03/13 04:31:12;;;;;;;9.75;4.60;;;9.90;99.90;;;;;;6245836;23;20441;-88
2023/03/13 04:33:38;;;;;;;8.23;4.97;;;9.90;99.90;;;;;;6218464;23;20024;-88
2023/03/13 04:36:03;;;;;;;8.45;4.85;;;9.90;99.90;;;;;;6219014;23;20341;-89
2023/03/13 04:38:29;;;;;;;7.80;4.78;;;10.00;99.90;;;;;;6246066;23;20016;-89
2023/03/13 04:40:55;;;;;;;10.60;6.30;;;10.00;99.90;;;;;;6244905;23;20016;-88
2023/03/13 04:43:20;;;;;;;11.95;6.55;;;10.10;99.90;;;;;;6246468;23;20027;-88
2023/03/13 04:45:46;;;;;;;10.68;5.75;;;10.10;99.90;;;;;;6219234;23;20012;-89
2023/03/13 04:48:12;;;;;;;10.52;5.72;;;10.10;99.90;;;;;;6217966;23;20023;-88
2023/03/13 04:50:38;;;;;;;9.48;5.53;;;10.20;99.90;;;;;;6246017;23;20015;-87
2023/03/13 04:53:03;;;;;;;10.75;5.65;;;10.20;99.90;;;;;;6218062;23;20041;-87
2023/03/13 04:55:29;;;;;;;8.13;6.03;;;10.20;99.90;;;;;;6245221;23;20020;-86
2023/03/13 04:57:54;;;;;;;10.50;6.13;;;10.20;99.90;;;;;;6246190;23;20016;-87
2023/03/13 05:00:20;;;;;;;9.52;6.13;;;10.30;99.90;;;;;;6217457;23;20008;-88
2023/03/13 05:02:46;;;;;;;12.43;6.30;;;10.30;99.90;;;;;;6219078;23;20016;-86
2023/03/13 05:05:11;;;;;;;10.20;6.95;;;10.40;99.90;;;;;;6218706;23;20016;-86
2023/03/13 05:07:37;;;;;;;8.32;5.55;;;10.40;99.90;;;;;;6218094;23;20440;-87
2023/03/13 05:10:03;;;;;;;14.15;7.90;;;10.40;99.90;;;;;;6218936;23;20016;-88
2023/03/13 05:12:29;;;;;;;12.32;7.50;;;10.50;99.90;;;;;;6218228;23;20016;-87
2023/03/13 05:14:54;;;;;;;14.55;7.82;;;10.50;99.90;;;;;;6217892;23;20047;-88
2023/03/13 05:17:20;;;;;;;13.75;7.90;;;10.50;99.90;;;;;;6218854;23;20020;-91
2023/03/13 05:19:46;;;;;;;12.63;7.88;;;10.60;99.90;;;;;;6245884;23;20016;-90
2023/03/13 05:22:11;;;;;;;18.67;8.85;;;10.60;99.90;;;;;;6217959;23;20016;-91
2023/03/13 05:24:37;;;;;;;18.20;8.32;;;10.60;99.90;;;;;;6219035;23;20008;-90
2023/03/13 05:27:02;;;;;;;13.52;6.72;;;10.70;99.90;;;;;;6246325;23;20070;-91
2023/03/13 05:29:28;;;;;;;14.15;8.55;;;10.70;99.90;;;;;;6217840;23;20019;-90
2023/03/13 05:31:54;;;;;;;12.75;7.18;;;10.80;99.90;;;;;;6245830;23;20012;-91
2023/03/13 05:34:19;;;;;;;8.48;6.07;;;10.80;99.90;;;;;;6245042;23;20114;-90
2023/03/13 05:36:45;;;;;;;12.80;6.78;;;10.80;99.90;;;;;;6260538;23;20016;-95
2023/03/13 05:39:10;;;;;;;12.70;6.22;;;10.90;99.90;;;;;;6231240;23;20012;-94
2023/03/13 05:41:36;;;;;;;11.13;6.38;;;10.90;99.90;;;;;;6252694;23;20019;-95
2023/03/13 05:44:01;;;;;;;10.98;6.50;;;10.90;99.90;;;;;;6257021;23;20020;-96
2023/03/13 05:46:27;;;;;;;9.90;5.03;;;11.00;99.90;;;;;;6223352;23;20514;-89
2023/03/13 05:48:53;;;;;;;9.60;5.70;;;11.00;99.90;;;;;;6217535;23;20016;-89
2023/03/13 05:51:18;;;;;;;9.80;5.15;;;11.00;99.90;;;;;;6244303;23;20031;-89
2023/03/13 05:53:44;;;;;;;8.50;4.88;;;11.00;99.90;;;;;;6218426;23;20349;-88
2023/03/13 05:56:09;;;;;;;10.00;5.60;;;11.10;99.90;;;;;;6218108;23;20091;-88
2023/03/13 05:58:35;;;;;;;10.90;5.57;;;11.10;99.90;;;;;;6245066;23;20017;-88
2023/03/13 06:01:08;;;;;;;10.95;5.97;;;11.10;99.90;;;;;;6218754;23;20016;-88
2023/03/13 06:03:34;;;;;;;10.90;5.78;;;11.10;99.90;;;;;;6244464;23;20480;-88
2023/03/13 06:05:59;;;;;;;12.13;5.93;;;11.10;99.90;;;;;;6246704;23;20008;-88
2023/03/13 06:08:25;;;;;;;12.10;6.10;;;11.20;99.90;;;;;;6220190;23;20024;-88
2023/03/13 06:10:51;;;;;;;13.05;6.13;;;11.20;99.90;;;;;;6214492;23;20039;-88
2023/03/13 06:13:16;;;;;;;13.27;5.50;;;11.20;99.90;;;;;;6217109;23;20052;-87
2023/03/13 06:15:42;;;;;;;11.07;5.40;;;11.20;99.90;;;;;;6217557;23;20012;-87
2023/03/13 06:18:07;;;;;;;10.07;5.70;;;11.20;99.90;;;;;;6215618;23;20107;-87
2023/03/13 06:20:33;;;;;;;12.13;5.40;;;11.20;99.90;;;;;;6215421;23;20027;-88
2023/03/13 06:22:59;;;;;;;13.40;5.05;;;11.20;99.90;;;;;;6215977;23;20059;-87
2023/03/13 06:25:25;;;;;;;13.60;5.78;;;11.30;99.90;;;;;;6214040;23;20349;-87
2023/03/13 06:27:51;;;;;;;12.00;6.13;;;11.30;99.90;;;;;;6215202;23;20052;-87
2023/03/13 06:30:17;;;;;;;13.98;5.13;;;11.30;99.90;;;;;;6216748;23;20044;-87
2023/03/13 06:32:42;;;;;;;16.98;5.80;;;11.30;99.90;;;;;;6214365;23;20387;-87
2023/03/13 06:35:08;;;;;;;14.05;5.30;;;11.30;99.90;;;;;;6215196;23;20090;-87
2023/03/13 06:37:34;;;;;;;12.52;5.40;;;11.30;99.90;;;;;;6215419;23;20013;-87
2023/03/13 06:40:00;;;;;;;13.65;5.53;;;11.40;99.90;;;;;;6216057;23;20012;-87
2023/03/13 06:42:25;;;;;;;14.65;5.60;;;11.40;99.90;;;;;;6214893;23;20029;-87
2023/03/13 06:44:51;;;;;;;16.50;5.50;;;11.40;99.90;;;;;;6215743;23;20023;-87
2023/03/13 06:47:16;;;;;;;13.27;5.40;;;11.40;99.90;;;;;;6213914;23;20028;-87
2023/03/13 06:49:42;;;;;;;16.40;5.13;;;11.40;99.90;;;;;;6216998;23;20392;-88
2023/03/13 06:52:07;;;;;;;13.98;4.78;;;11.40;99.90;;;;;;6216486;23;20008;-87
2023/03/13 06:54:33;;;;;;;15.98;5.38;;;11.40;99.90;;;;;;6215670;23;20024;-88
2023/03/13 06:56:58;;;;;;;13.60;4.80;;;11.50;99.90;;;;;;6215156;23;20055;-88
2023/03/13 06:59:24;;;;;;;16.83;5.18;;;11.40;99.90;;;;;;6215555;23;20012;-87
2023/03/13 07:01:50;;;;;;;19.85;5.10;;;11.50;99.90;;;;;;6214784;23;20075;-88
2023/03/13 07:04:15;;;;;;;17.95;5.22;;;11.50;99.90;;;;;;6214773;23;20051;-88
2023/03/13 07:06:42;;;;;;;14.13;5.00;;;11.50;99.90;;;;;;6214779;23;20389;-87
2023/03/13 07:09:09;;;;;;;16.23;4.65;;;11.50;99.90;;;;;;6216764;23;20155;-87
2023/03/13 07:11:34;;;;;;;12.38;4.32;;;11.50;99.90;;;;;;6214700;23;20017;-88
2023/03/13 07:14:00;;;;;;;18.73;5.20;;;11.50;99.90;;;;;;6214104;23;20025;-87
2023/03/13 07:16:26;;;;;;;14.85;4.68;;;11.60;99.90;;;;;;6216824;23;20511;-87
2023/03/13 07:18:52;;;;;;;16.80;4.55;;;11.60;99.90;;;;;;6214476;23;20021;-88
2023/03/13 07:21:17;;;;;;;17.80;4.57;;;11.60;99.90;;;;;;6213728;23;20017;-88
2023/03/13 07:23:43;;;;;;;11.70;4.57;;;11.50;99.90;;;;;;6214752;23;20345;-88
2023/03/13 07:26:14;;;;;;;15.95;4.72;;;11.60;99.90;;;;;;6215130;23;20096;-87
2023/03/13 07:28:40;;;;;;;18.63;4.28;;;11.50;99.90;;;;;;6215779;23;20012;-88
2023/03/13 07:31:10;;;;;;;15.80;4.45;;;11.50;99.90;;;;;;6216683;23;20012;-87
2023/03/13 07:33:35;;;;;;;15.50;4.40;;;11.50;99.90;;;;;;6217474;23;20075;-87
2023/03/13 07:36:01;;;;;;;16.35;4.18;;;11.60;99.90;;;;;;6214471;23;20012;-88
2023/03/13 07:38:27;;;;;;;17.25;4.40;;;11.60;99.90;;;;;;6214460;23;20017;-87
2023/03/13 07:40:55;;;;;;;15.95;4.03;;;11.60;99.90;;;;;;6214692;23;20071;-87
2023/03/13 07:43:21;;;;;;;20.17;4.57;;;11.60;99.90;;;;;;6213706;23;20340;-87
2023/03/13 07:46:07;;;;;;;16.33;4.43;;;11.60;99.90;;;;;;6217116;23;20012;-88
2023/03/13 07:48:35;;;;;;;13.88;4.40;;;11.60;99.90;;;;;;6214796;23;20012;-88
2023/03/13 07:51:01;;;;;;;16.40;4.18;;;11.60;99.90;;;;;;6214651;23;20101;-87
2023/03/13 07:53:28;;;;;;;12.10;4.18;;;11.60;99.90;;;;;;6214687;23;20016;-87
2023/03/13 07:56:15;;;;;;;11.00;3.65;;;11.60;99.90;;;;;;6214640;23;20066;-86
2023/03/13 07:58:42;;;;;;;11.43;3.60;;;11.60;99.90;;;;;;6211101;23;20021;-87
2023/03/13 08:01:22;;;;;;;10.60;3.70;;;11.60;99.90;;;;;;6216474;23;20013;-87
2023/03/13 08:03:49;;;;;;;13.35;3.83;;;11.60;99.90;;;;;;6215948;23;20017;-87
2023/03/13 08:06:18;;;;;;;17.80;3.92;;;11.60;99.90;;;;;;6214177;23;20012;-87
2023/03/13 08:08:44;;;;;;;12.27;3.38;;;11.60;99.90;;;;;;6216478;23;20012;-87
2023/03/13 08:11:13;;;;;;;7.10;2.60;;;11.60;99.90;;;;;;6213129;23;20020;-88
2023/03/13 08:13:40;;;;;;;7.63;2.70;;;11.60;99.90;;;;;;6216381;23;20017;-87
2023/03/13 08:16:26;;;;;;;11.15;3.40;;;11.60;99.90;;;;;;6214512;23;20318;-87
2023/03/13 08:18:54;;;;;;;7.13;2.35;;;11.60;99.90;;;;;;6213195;23;20018;-86
2023/03/13 08:21:22;;;;;;;6.50;2.22;;;11.60;99.90;;;;;;6214122;23;20016;-89
2023/03/13 08:23:52;;;;;;;7.20;2.42;;;11.60;99.90;;;;;;6214208;23;20039;-87
2023/03/13 08:26:20;;;;;;;8.43;2.50;;;11.60;99.90;;;;;;6214270;23;20333;-88
2023/03/13 08:28:47;;;;;;;6.95;2.25;;;11.70;99.90;;;;;;6215549;23;20027;-88
2023/03/13 08:31:21;;;;;;;7.60;2.08;;;11.70;99.90;;;;;;6214411;23;20471;-88
2023/03/13 08:33:47;;;;;;;7.55;2.17;;;11.70;99.90;;;;;;6214196;23;20013;-88
2023/03/13 08:36:30;;;;;;;5.50;1.77;;;11.70;99.90;;;;;;6215985;23;20376;-89
2023/03/13 08:38:59;;;;;;;9.02;1.67;;;11.70;99.90;;;;;;6213578;23;20019;-89
2023/03/13 08:41:28;;;;;;;8.32;2.35;;;11.80;99.90;;;;;;6215299;23;20020;-88
2023/03/13 08:43:57;;;;;;;7.70;1.90;;;11.80;99.90;;;;;;6214224;23;20094;-89
2023/03/13 08:46:24;;;;;;;8.57;1.90;;;11.80;99.90;;;;;;6212981;23;20084;-89
2023/03/13 08:48:51;;;;;;;9.57;1.90;;;11.80;99.90;;;;;;6215322;23;20046;-87
2023/03/13 08:51:18;;;;;;;6.20;1.52;;;11.90;99.90;;;;;;6215281;23;20429;-89
2023/03/13 08:53:44;;;;;;;7.28;1.88;;;11.90;99.90;;;;;;6213880;23;20016;-89
2023/03/13 08:56:13;;;;;;;5.82;1.83;;;11.90;99.90;;;;;;6215699;23;20024;-89
2023/03/13 08:58:39;;;;;;;8.48;2.30;;;11.90;99.90;;;;;;6214244;23;20027;-89
2023/03/13 09:01:13;;;;;;;6.90;2.20;;;11.90;99.90;;;;;;6215135;23;20020;-89
2023/03/13 09:03:39;;;;;;;6.78;2.05;;;12.00;99.90;;;;;;6215939;23;20016;-88
2023/03/13 09:06:06;;;;;;;6.97;2.28;;;12.00;99.90;;;;;;6215819;23;20016;-88
2023/03/13 09:08:32;;;;;;;8.15;2.10;;;12.00;99.90;;;;;;6212706;23;20017;-88
2023/03/13 09:11:06;;;;;;;6.60;2.20;;;12.10;99.90;;;;;;6233753;23;20039;-90
2023/03/13 09:13:34;;;;;;;7.43;2.08;;;12.10;99.90;;;;;;6217785;23;20364;-88
2023/03/13 09:16:08;;;;;;;9.52;2.40;;;12.10;99.90;;;;;;6218744;23;20444;-88
2023/03/13 09:18:34;;;;;;;6.38;2.20;;;12.10;99.90;;;;;;6218671;23;20031;-89
2023/03/13 09:21:00;;;;;;;9.43;2.28;;;12.10;99.90;;;;;;6218101;23;20008;-89
2023/03/13 09:23:26;;;;;;;8.50;2.78;;;12.20;99.90;;;;;;6245715;23;20043;-89
2023/03/13 09:25:53;;;;;;;9.25;3.00;;;12.20;99.90;;;;;;6246306;23;20016;-88
2023/03/13 09:28:19;;;;;;;12.82;2.83;;;12.20;99.90;;;;;;6244783;23;20328;-88
2023/03/13 09:30:45;;;;;;;9.18;2.78;;;12.20;99.90;;;;;;6218682;23;20012;-90
2023/03/13 09:33:10;;;;;;;10.82;2.80;;;12.10;99.90;;;;;;6218413;23;20093;-88
2023/03/13 09:35:39;;;;;;;12.38;2.97;;;12.20;99.90;;;;;;6218030;23;20016;-89
2023/03/13 09:38:05;;;;;;;10.40;2.63;;;12.10;99.90;;;;;;6219054;23;20078;-90
2023/03/13 09:40:46;;;;;;;9.48;2.60;;;12.10;99.90;;;;;;6246767;23;20066;-95
2023/03/13 09:43:52;;;;;;;8.43;2.30;;;12.10;99.90;;;;;;6221711;23;20020;-94
2023/03/13 09:46:22;;;;;;;7.88;2.53;;;12.10;99.90;;;;;;6254914;23;20016;-96
2023/03/13 09:48:54;;;;;;;10.18;2.65;;;12.10;99.90;;;;;;6260380;23;20016;-94
2023/03/13 09:51:39;;;;;;;7.55;2.45;;;12.10;99.90;;;;;;6263160;23;20016;-96
2023/03/13 09:54:30;;;;;;;10.75;2.67;;;12.20;99.90;;;;;;6266143;23;20027;-96
2023/03/13 09:57:02;;;;;;;9.50;2.67;;;12.20;99.90;;;;;;6264711;23;20043;-95
2023/03/13 09:59:45;;;;;;;8.93;2.50;;;12.20;99.90;;;;;;6233250;23;20114;-96
2023/03/13 10:02:28;;;;;;;14.30;2.78;;;12.30;99.90;;;;;;6226647;23;20008;-96
2023/03/13 10:05:11;;;;;;;9.13;2.40;;;12.40;99.90;;;;;;6250941;23;20012;-96
2023/03/13 10:07:36;;;;;;;11.20;2.25;;;12.40;99.90;;;;;;6249870;23;20059;-96
2023/03/13 10:10:03;;;;;;;13.02;2.83;;;12.50;99.90;;;;;;6248278;23;20012;-91
2023/03/13 10:12:37;;;;;;;14.40;2.25;;;12.60;99.90;;;;;;6222062;23;20024;-93
2023/03/13 10:15:05;;;;;;;10.60;2.28;;;12.70;99.90;;;;;;6222227;23;20021;-94
2023/03/13 10:17:32;;;;;;;13.70;2.58;;;12.70;99.90;;;;;;6249334;23;20062;-95
2023/03/13 10:20:24;;;;;;;11.85;2.42;;;12.80;99.90;;;;;;6221918;23;20012;-95
2023/03/13 10:23:14;;;;;;;10.73;2.10;;;12.80;99.90;;;;;;6221184;23;20051;-93
2023/03/13 10:25:40;;;;;;;13.13;2.65;;;12.80;99.90;;;;;;6220543;23;20066;-95
2023/03/13 10:28:13;;;;;;;10.82;2.78;;;12.80;99.90;;;;;;6221819;23;20020;-95
2023/03/13 10:30:45;;;;;;;16.70;2.80;;;12.90;99.90;;;;;;6221415;23;20050;-94
2023/03/13 10:33:11;;;;;;;11.48;2.80;;;12.90;99.90;;;;;;6221548;23;20024;-96
2023/03/13 10:35:39;;;;;;;11.98;2.42;;;12.90;99.90;;;;;;6221837;23;20023;-94
2023/03/13 10:38:28;;;;;;;13.23;2.80;;;12.90;99.90;;;;;;6248752;23;20095;-96
2023/03/13 10:40:57;;;;;;;11.27;2.50;;;13.00;99.90;;;;;;6241134;23;20013;-95
2023/03/13 10:43:24;;;;;;;16.17;2.88;;;13.00;99.90;;;;;;6223043;23;20021;-94
2023/03/13 10:45:51;;;;;;;19.85;2.85;;;13.10;99.90;;;;;;6248537;23;20016;-96
2023/03/13 10:48:22;;;;;;;14.95;3.05;;;13.10;99.90;;;;;;6248105;23;20139;-95
2023/03/13 10:50:50;;;;;;;17.50;2.97;;;13.10;99.90;;;;;;6222304;23;20338;-94
2023/03/13 10:53:21;;;;;;;16.13;2.95;;;13.20;99.90;;;;;;6220939;23;20020;-94
2023/03/13 10:55:48;;;;;;;16.20;4.10;;;13.30;99.90;;;;;;6236781;23;20071;-96
2023/03/13 10:58:54;;;;;;;19.98;3.67;;;13.30;99.90;;;;;;6223144;23;20061;-94
2023/03/13 11:01:25;;;;;;;13.68;2.88;;;13.30;99.90;;;;;;6223839;23;20016;-94
2023/03/13 11:03:53;;;;;;;16.92;2.90;;;13.40;99.90;;;;;;6220988;23;20016;-93
2023/03/13 11:06:40;;;;;;;13.23;2.80;;;13.40;99.90;;;;;;6220258;23;20095;-92
2023/03/13 11:09:15;;;;;;;13.15;3.00;;;13.50;99.90;;;;;;6247838;23;20016;-96
2023/03/13 11:12:00;;;;;;;11.95;2.67;;;13.50;99.90;;;;;;6221932;23;20022;-95
2023/03/13 11:14:26;;;;;;;13.02;3.00;;;13.60;99.90;;;;;;6222021;23;20020;-91
2023/03/13 11:17:11;;;;;;;13.90;2.67;;;13.60;99.90;;;;;;6219788;23;20094;-93
2023/03/13 11:19:51;;;;;;;14.30;2.50;;;13.60;99.90;;;;;;6247542;23;20050;-93
2023/03/13 11:22:41;;;;;;;10.85;2.58;;;13.60;99.90;;;;;;6247995;23;20019;-92
2023/03/13 11:25:12;;;;;;;13.38;2.42;;;13.60;99.90;;;;;;6221053;23;20018;-94
2023/03/13 11:27:47;;;;;;;12.10;2.33;;;13.60;99.90;;;;;;6220011;23;20020;-93
2023/03/13 11:30:49;;;;;;;7.78;2.03;;;13.60;99.90;;;;;;6247633;23;20023;-93
2023/03/13 11:33:20;;;;;;;9.50;2.20;;;13.70;99.90;;;;;;6253642;23;20444;-95
2023/03/13 11:36:05;;;;;;;13.55;2.30;;;13.70;99.90;;;;;;6222485;23;20044;-95
2023/03/13 11:38:37;;;;;;;7.50;1.80;;;13.70;99.90;;;;;;6256945;23;20016;-95
2023/03/13 11:41:27;;;;;;;9.57;1.90;;;13.70;99.90;;;;;;6250284;23;20040;-96
2023/03/13 11:44:22;;;;;;;11.48;2.00;;;13.80;99.90;;;;;;6222772;23;20251;-96
2023/03/13 11:47:29;;;;;;;9.95;2.30;;;13.80;99.90;;;;;;6199751;23;20325;-95
2023/03/13 11:50:32;;;;;;;12.32;3.08;;;13.90;99.90;;;;;;6248398;23;20034;-95
2023/03/13 11:53:00;;;;;;;9.90;1.83;;;14.00;99.90;;;;;;6248807;23;20026;-96
2023/03/13 11:55:42;;;;;;;9.15;1.73;;;14.10;99.90;;;;;;6222085;23;20050;-95
2023/03/13 11:58:16;;;;;;;8.68;2.15;;;14.10;99.90;;;;;;6249550;23;20375;-96
2023/03/13 12:01:12;;;;;;;8.82;1.80;;;14.20;99.90;;;;;;6248334;23;20016;-96
2023/03/13 12:03:50;;;;;;;7.78;1.52;;;14.30;99.90;;;;;;6248581;23;20020;-95
2023/03/13 12:06:28;;;;;;;8.85;2.08;;;14.30;99.90;;;;;;6249096;23;20020;-96
2023/03/13 12:09:17;;;;;;;11.00;2.00;;;14.30;99.90;;;;;;6228953;23;20016;-95
2023/03/13 12:12:03;;;;;;;10.77;1.85;;;14.30;99.70;;;;;;6227779;23;20028;-95
2023/03/13 12:14:57;;;;;;;10.10;2.28;;;14.30;99.30;;;;;;6220683;23;20020;-94
2023/03/13 12:17:37;;;;;;;13.20;2.60;;;14.30;98.60;;;;;;6220142;23;20062;-95
2023/03/13 12:20:12;;;;;;;9.57;2.00;;;14.30;98.70;;;;;;6222254;23;20015;-95
2023/03/13 12:22:46;;;;;;;12.93;2.40;;;14.30;98.50;;;;;;6222327;23;20095;-96
2023/03/13 12:25:20;;;;;;;13.80;2.40;;;14.30;98.70;;;;;;6246603;23;20023;-95
2023/03/13 12:27:52;;;;;;;8.93;1.88;;;14.30;98.50;;;;;;6248498;23;20076;-94
2023/03/13 12:30:28;;;;;;;9.35;2.35;;;14.40;98.10;;;;;;6250082;23;20425;-95
2023/03/13 12:33:18;;;;;;;9.98;2.47;;;14.40;97.90;;;;;;6224683;23;20020;-96
2023/03/13 12:35:51;;;;;;;13.40;2.30;;;14.40;97.50;;;;;;6253647;23;20086;-96
2023/03/13 12:38:23;;;;;;;12.75;2.45;;;14.30;97.80;;;;;;6251145;23;20012;-96
2023/03/13 12:41:18;;;;;;;10.43;2.05;;;14.30;97.40;;;;;;6253987;23;20012;-96
2023/03/13 12:43:46;;;;;;;13.32;2.45;;;14.30;97.10;;;;;;6225960;23;20012;-95
2023/03/13 12:46:11;;;;;;;12.20;2.40;;;14.30;97.60;;;;;;6224025;23;20046;-96
2023/03/13 12:48:40;;;;;;;16.15;2.75;;;14.30;97.30;;;;;;6223685;23;20012;-91
2023/03/13 12:51:33;;;;;;;14.43;2.90;;;14.30;96.90;;;;;;6222990;23;20396;-94
2023/03/13 12:54:30;;;;;;;13.18;2.60;;;14.30;96.20;;;;;;6253698;23;20016;-95
2023/03/13 12:57:31;;;;;;;15.38;2.90;;;14.30;95.90;;;;;;6224847;23;20072;-95
2023/03/13 13:00:04;;;;;;;12.82;2.67;;;14.30;96.10;;;;;;6226624;23;20340;-92